sensor_id;sensor_type;location;lat;lon;timestamp;temperature;humidity
65048;DHT22;52089;51.362;-2.384;2022-12-29T00:01:42;7.80;99.90
65048;DHT22;52089;51.362;-2.384;2022-12-29T00:05:24;7.70;99.90
65048;DHT22;52089;51.362;-2.384;2022-12-29T00:09:06;7.70;99.90
65048;DHT22;52089;51.362;-2.384;2022-12-29T00:12:48;7.50;99.90
65048;DHT22;52089;51.362;-2.384;2022-12-29T00:17:08;7.50;99.90
65048;DHT22;52089;51.362;-2.384;2022-12-29T00:20:54;7.40;99.90
65048;DHT22;52089;51.362;-2.384;2022-12-29T00:24:55;7.40;99.90
65048;DHT22;52089;51.362;-2.384;2022-12-29T00:28:43;7.40;99.90
65048;DHT22;52089;51.362;-2.384;2022-12-29T00:32:43;7.30;99.90
65048;DHT22;52089;51.362;-2.384;2022-12-29T00:36:44;7.40;99.90
65048;DHT22;52089;51.362;-2.384;2022-12-29T00:40:26;7.40;99.90
65048;DHT22;52089;51.362;-2.384;2022-12-29T00:44:27;7.40;99.90
65048;DHT22;52089;51.362;-2.384;2022-12-29T00:48:08;7.40;99.90
65048;DHT22;52089;51.362;-2.384;2022-12-29T00:51:51;7.50;99.90
65048;DHT22;52089;51.362;-2.384;2022-12-29T00:55:36;7.50;99.90
65048;DHT22;52089;51.362;-2.384;2022-12-29T00:59:19;7.70;99.90
65048;DHT22;52089;51.362;-2.384;2022-12-29T01:03:01;7.70;99.90
65048;DHT22;52089;51.362;-2.384;2022-12-29T01:06:43;7.70;99.90
65048;DHT22;52089;51.362;-2.384;2022-12-29T01:10:25;7.70;99.90
65048;DHT22;52089;51.362;-2.384;2022-12-29T01:14:07;7.60;99.90
65048;DHT22;52089;51.362;-2.384;2022-12-29T01:17:49;7.60;99.90
65048;DHT22;52089;51.362;-2.384;2022-12-29T01:21:30;7.60;99.90
65048;DHT22;52089;51.362;-2.384;2022-12-29T01:25:12;7.60;99.90
65048;DHT22;52089;51.362;-2.384;2022-12-29T01:28:54;7.60;99.90
65048;DHT22;52089;51.362;-2.384;2022-12-29T01:32:36;7.60;99.90
65048;DHT22;52089;51.362;-2.384;2022-12-29T01:36:19;7.70;99.90
65048;DHT22;52089;51.362;-2.384;2022-12-29T01:40:00;7.80;99.90
65048;DHT22;52089;51.362;-2.384;2022-12-29T01:43:48;7.80;99.90
65048;DHT22;52089;51.362;-2.384;2022-12-29T01:47:43;7.90;99.90
65048;DHT22;52089;51.362;-2.384;2022-12-29T01:51:26;7.90;99.90
65048;DHT22;52089;51.362;-2.384;2022-12-29T01:55:10;7.90;99.90
65048;DHT22;52089;51.362;-2.384;2022-12-29T01:58:59;7.90;99.90
65048;DHT22;52089;51.362;-2.384;2022-12-29T02:02:45;7.90;99.90
65048;DHT22;52089;51.362;-2.384;2022-12-29T02:06:33;8.00;99.90
65048;DHT22;52089;51.362;-2.384;2022-12-29T02:10:17;8.10;99.90
65048;DHT22;52089;51.362;-2.384;2022-12-29T02:13:59;8.00;99.90
65048;DHT22;52089;51.362;-2.384;2022-12-29T02:18:03;8.00;99.90
65048;DHT22;52089;51.362;-2.384;2022-12-29T02:21:55;8.10;99.90
65048;DHT22;52089;51.362;-2.384;2022-12-29T02:38:18;8.40;99.90
65048;DHT22;52089;51.362;-2.384;2022-12-29T02:42:30;8.40;99.90
65048;DHT22;52089;51.362;-2.384;2022-12-29T02:46:38;8.50;99.90
65048;DHT22;52089;51.362;-2.384;2022-12-29T02:50:34;8.50;99.90
65048;DHT22;52089;51.362;-2.384;2022-12-29T02:54:19;8.50;99.90
65048;DHT22;52089;51.362;-2.384;2022-12-29T02:58:23;8.50;99.90
65048;DHT22;52089;51.362;-2.384;2022-12-29T03:13:51;8.10;99.90
65048;DHT22;52089;51.362;-2.384;2022-12-29T03:18:04;8.10;99.90
65048;DHT22;52089;51.362;-2.384;2022-12-29T03:21:54;8.00;99.90
65048;DHT22;52089;51.362;-2.384;2022-12-29T03:26:00;8.00;99.90
65048;DHT22;52089;51.362;-2.384;2022-12-29T03:29:47;8.00;99.90
65048;DHT22;52089;51.362;-2.384;2022-12-29T03:33:34;8.00;99.90
65048;DHT22;52089;51.362;-2.384;2022-12-29T03:37:23;7.90;99.90
65048;DHT22;52089;51.362;-2.384;2022-12-29T03:41:13;7.90;99.90
65048;DHT22;52089;51.362;-2.384;2022-12-29T03:44:56;7.80;99.90
65048;DHT22;52089;51.362;-2.384;2022-12-29T03:48:38;7.80;99.90
65048;DHT22;52089;51.362;-2.384;2022-12-29T03:52:20;7.80;99.90
65048;DHT22;52089;51.362;-2.384;2022-12-29T03:56:01;7.80;99.90
65048;DHT22;52089;51.362;-2.384;2022-12-29T03:59:43;7.90;99.90
65048;DHT22;52089;51.362;-2.384;2022-12-29T04:03:25;7.90;99.90
65048;DHT22;52089;51.362;-2.384;2022-12-29T04:07:07;7.90;99.90
65048;DHT22;52089;51.362;-2.384;2022-12-29T04:10:49;7.80;99.90
65048;DHT22;52089;51.362;-2.384;2022-12-29T04:14:31;7.80;99.90
65048;DHT22;52089;51.362;-2.384;2022-12-29T04:18:13;7.70;99.90
65048;DHT22;52089;51.362;-2.384;2022-12-29T04:21:55;7.60;99.90
65048;DHT22;52089;51.362;-2.384;2022-12-29T04:25:37;7.60;99.90
65048;DHT22;52089;51.362;-2.384;2022-12-29T04:29:18;7.50;99.90
65048;DHT22;52089;51.362;-2.384;2022-12-29T04:33:00;7.50;99.90
65048;DHT22;52089;51.362;-2.384;2022-12-29T04:36:42;7.50;99.90
65048;DHT22;52089;51.362;-2.384;2022-12-29T04:40:24;7.50;99.90
65048;DHT22;52089;51.362;-2.384;2022-12-29T04:44:05;7.40;99.90
65048;DHT22;52089;51.362;-2.384;2022-12-29T04:47:47;7.40;99.90
65048;DHT22;52089;51.362;-2.384;2022-12-29T04:51:29;7.40;99.90
65048;DHT22;52089;51.362;-2.384;2022-12-29T04:55:11;7.40;99.90
65048;DHT22;52089;51.362;-2.384;2022-12-29T04:58:53;7.40;99.90
65048;DHT22;52089;51.362;-2.384;2022-12-29T05:02:36;7.40;99.90
65048;DHT22;52089;51.362;-2.384;2022-12-29T05:06:18;7.50;99.90
65048;DHT22;52089;51.362;-2.384;2022-12-29T05:10:00;7.50;99.90
65048;DHT22;52089;51.362;-2.384;2022-12-29T05:13:45;7.40;99.90
65048;DHT22;52089;51.362;-2.384;2022-12-29T05:17:27;7.40;99.90
65048;DHT22;52089;51.362;-2.384;2022-12-29T05:21:09;7.30;99.90
65048;DHT22;52089;51.362;-2.384;2022-12-29T05:24:51;7.20;99.90
65048;DHT22;52089;51.362;-2.384;2022-12-29T05:28:32;7.20;99.90
65048;DHT22;52089;51.362;-2.384;2022-12-29T05:32:14;7.10;99.90
65048;DHT22;52089;51.362;-2.384;2022-12-29T05:35:56;7.10;99.90
65048;DHT22;52089;51.362;-2.384;2022-12-29T05:39:38;7.00;99.90
65048;DHT22;52089;51.362;-2.384;2022-12-29T05:43:20;7.00;99.90
65048;DHT22;52089;51.362;-2.384;2022-12-29T05:47:02;7.00;99.90
65048;DHT22;52089;51.362;-2.384;2022-12-29T05:50:48;6.90;99.90
65048;DHT22;52089;51.362;-2.384;2022-12-29T05:54:30;6.90;99.90
65048;DHT22;52089;51.362;-2.384;2022-12-29T05:58:12;7.00;99.90
65048;DHT22;52089;51.362;-2.384;2022-12-29T06:01:54;7.00;99.90
65048;DHT22;52089;51.362;-2.384;2022-12-29T06:05:36;7.00;99.90
65048;DHT22;52089;51.362;-2.384;2022-12-29T06:09:18;7.10;99.90
65048;DHT22;52089;51.362;-2.384;2022-12-29T06:13:00;7.10;99.90
65048;DHT22;52089;51.362;-2.384;2022-12-29T06:16:41;7.20;99.90
65048;DHT22;52089;51.362;-2.384;2022-12-29T06:20:24;7.30;99.90
65048;DHT22;52089;51.362;-2.384;2022-12-29T06:24:06;7.30;99.90
65048;DHT22;52089;51.362;-2.384;2022-12-29T06:27:48;7.30;99.90
65048;DHT22;52089;51.362;-2.384;2022-12-29T06:31:29;7.20;99.90
65048;DHT22;52089;51.362;-2.384;2022-12-29T06:35:11;7.20;99.90
65048;DHT22;52089;51.362;-2.384;2022-12-29T06:38:53;7.30;99.90
65048;DHT22;52089;51.362;-2.384;2022-12-29T06:42:35;7.30;99.90
65048;DHT22;52089;51.362;-2.384;2022-12-29T06:46:17;7.30;99.90
65048;DHT22;52089;51.362;-2.384;2022-12-29T06:49:59;7.30;99.90
65048;DHT22;52089;51.362;-2.384;2022-12-29T06:53:41;7.20;99.90
65048;DHT22;52089;51.362;-2.384;2022-12-29T06:57:23;7.20;99.90
65048;DHT22;52089;51.362;-2.384;2022-12-29T07:01:05;7.10;99.90
65048;DHT22;52089;51.362;-2.384;2022-12-29T07:04:46;7.10;99.90
65048;DHT22;52089;51.362;-2.384;2022-12-29T07:08:28;7.00;99.90
65048;DHT22;52089;51.362;-2.384;2022-12-29T07:12:10;6.90;99.90
65048;DHT22;52089;51.362;-2.384;2022-12-29T07:15:52;6.90;99.90
65048;DHT22;52089;51.362;-2.384;2022-12-29T07:19:33;6.90;99.90
65048;DHT22;52089;51.362;-2.384;2022-12-29T07:23:15;6.90;99.90
65048;DHT22;52089;51.362;-2.384;2022-12-29T07:26:57;7.00;99.90
65048;DHT22;52089;51.362;-2.384;2022-12-29T07:30:39;7.10;99.90
65048;DHT22;52089;51.362;-2.384;2022-12-29T07:34:21;7.20;99.90
65048;DHT22;52089;51.362;-2.384;2022-12-29T07:38:03;7.20;99.90
65048;DHT22;52089;51.362;-2.384;2022-12-29T07:41:44;7.20;99.90
65048;DHT22;52089;51.362;-2.384;2022-12-29T07:45:26;7.20;99.90
65048;DHT22;52089;51.362;-2.384;2022-12-29T07:49:08;7.20;99.90
65048;DHT22;52089;51.362;-2.384;2022-12-29T07:52:50;7.20;99.90
65048;DHT22;52089;51.362;-2.384;2022-12-29T07:56:31;7.20;99.90
65048;DHT22;52089;51.362;-2.384;2022-12-29T08:00:14;7.20;99.90
65048;DHT22;52089;51.362;-2.384;2022-12-29T08:03:55;7.20;99.90
65048;DHT22;52089;51.362;-2.384;2022-12-29T08:07:38;7.20;99.90
65048;DHT22;52089;51.362;-2.384;2022-12-29T08:11:20;7.20;99.90
65048;DHT22;52089;51.362;-2.384;2022-12-29T08:15:02;7.20;99.90
65048;DHT22;52089;51.362;-2.384;2022-12-29T08:18:44;7.10;99.90
65048;DHT22;52089;51.362;-2.384;2022-12-29T08:22:26;7.10;99.90
65048;DHT22;52089;51.362;-2.384;2022-12-29T08:26:08;7.00;99.90
65048;DHT22;52089;51.362;-2.384;2022-12-29T08:29:49;6.90;99.90
65048;DHT22;52089;51.362;-2.384;2022-12-29T08:33:32;6.80;99.90
65048;DHT22;52089;51.362;-2.384;2022-12-29T08:37:13;6.70;99.90
65048;DHT22;52089;51.362;-2.384;2022-12-29T08:40:56;6.70;99.90
65048;DHT22;52089;51.362;-2.384;2022-12-29T08:44:38;6.60;99.90
65048;DHT22;52089;51.362;-2.384;2022-12-29T08:48:20;6.50;99.90
65048;DHT22;52089;51.362;-2.384;2022-12-29T08:52:03;6.50;99.90
65048;DHT22;52089;51.362;-2.384;2022-12-29T08:55:56;6.50;99.90
65048;DHT22;52089;51.362;-2.384;2022-12-29T08:59:45;6.60;99.90
65048;DHT22;52089;51.362;-2.384;2022-12-29T09:03:27;6.70;99.90
65048;DHT22;52089;51.362;-2.384;2022-12-29T09:07:29;6.70;99.90
65048;DHT22;52089;51.362;-2.384;2022-12-29T09:11:14;6.80;99.90
65048;DHT22;52089;51.362;-2.384;2022-12-29T09:14:56;6.80;99.90
65048;DHT22;52089;51.362;-2.384;2022-12-29T09:18:38;6.80;99.90
65048;DHT22;52089;51.362;-2.384;2022-12-29T09:22:21;6.70;99.90
65048;DHT22;52089;51.362;-2.384;2022-12-29T09:26:03;6.60;99.90
65048;DHT22;52089;51.362;-2.384;2022-12-29T09:29:44;6.60;99.90
65048;DHT22;52089;51.362;-2.384;2022-12-29T09:33:26;6.60;99.90
65048;DHT22;52089;51.362;-2.384;2022-12-29T09:37:08;6.50;99.90
65048;DHT22;52089;51.362;-2.384;2022-12-29T09:40:56;6.50;99.90
65048;DHT22;52089;51.362;-2.384;2022-12-29T09:48:34;6.40;99.90
65048;DHT22;52089;51.362;-2.384;2022-12-29T09:52:22;6.50;99.90
65048;DHT22;52089;51.362;-2.384;2022-12-29T09:56:20;6.70;99.90
65048;DHT22;52089;51.362;-2.384;2022-12-29T10:00:33;6.80;99.90
65048;DHT22;52089;51.362;-2.384;2022-12-29T10:04:09;6.90;99.90
65048;DHT22;52089;51.362;-2.384;2022-12-29T10:24:02;6.60;99.90
65048;DHT22;52089;51.362;-2.384;2022-12-29T10:27:50;6.60;99.90
65048;DHT22;52089;51.362;-2.384;2022-12-29T10:31:49;6.70;99.90
65048;DHT22;52089;51.362;-2.384;2022-12-29T10:35:36;6.70;99.90
65048;DHT22;52089;51.362;-2.384;2022-12-29T10:39:30;6.80;99.90
65048;DHT22;52089;51.362;-2.384;2022-12-29T10:43:51;6.90;99.90
65048;DHT22;52089;51.362;-2.384;2022-12-29T10:47:35;6.90;99.90
65048;DHT22;52089;51.362;-2.384;2022-12-29T10:51:26;6.90;99.90
65048;DHT22;52089;51.362;-2.384;2022-12-29T10:55:41;6.80;99.90
65048;DHT22;52089;51.362;-2.384;2022-12-29T10:59:29;6.80;99.90
65048;DHT22;52089;51.362;-2.384;2022-12-29T11:03:54;6.80;99.90
65048;DHT22;52089;51.362;-2.384;2022-12-29T11:07:41;6.80;99.90
65048;DHT22;52089;51.362;-2.384;2022-12-29T11:11:26;6.70;99.90
65048;DHT22;52089;51.362;-2.384;2022-12-29T11:15:14;6.50;99.90
65048;DHT22;52089;51.362;-2.384;2022-12-29T11:18:56;6.80;99.90
65048;DHT22;52089;51.362;-2.384;2022-12-29T11:22:43;7.10;99.90
65048;DHT22;52089;51.362;-2.384;2022-12-29T11:26:26;7.40;99.90
65048;DHT22;52089;51.362;-2.384;2022-12-29T11:30:31;7.50;99.90
65048;DHT22;52089;51.362;-2.384;2022-12-29T11:34:19;7.60;99.90
65048;DHT22;52089;51.362;-2.384;2022-12-29T11:38:02;7.60;99.90
65048;DHT22;52089;51.362;-2.384;2022-12-29T11:41:51;7.70;99.90
65048;DHT22;52089;51.362;-2.384;2022-12-29T11:45:35;7.80;99.90
65048;DHT22;52089;51.362;-2.384;2022-12-29T11:49:23;8.10;99.90
65048;DHT22;52089;51.362;-2.384;2022-12-29T11:57:13;9.20;99.90
65048;DHT22;52089;51.362;-2.384;2022-12-29T12:00:56;9.40;99.90
65048;DHT22;52089;51.362;-2.384;2022-12-29T12:04:39;9.40;99.90
65048;DHT22;52089;51.362;-2.384;2022-12-29T12:12:35;9.10;99.90
65048;DHT22;52089;51.362;-2.384;2022-12-29T12:16:22;9.30;99.90
65048;DHT22;52089;51.362;-2.384;2022-12-29T12:20:22;9.90;99.90
65048;DHT22;52089;51.362;-2.384;2022-12-29T12:28:28;9.90;99.90
65048;DHT22;52089;51.362;-2.384;2022-12-29T12:32:30;9.50;99.90
65048;DHT22;52089;51.362;-2.384;2022-12-29T12:40:29;8.80;99.90
65048;DHT22;52089;51.362;-2.384;2022-12-29T12:52:38;7.90;99.90
65048;DHT22;52089;51.362;-2.384;2022-12-29T12:56:43;8.30;99.90
65048;DHT22;52089;51.362;-2.384;2022-12-29T13:00:38;8.90;99.90
65048;DHT22;52089;51.362;-2.384;2022-12-29T13:20:42;10.00;99.90
65048;DHT22;52089;51.362;-2.384;2022-12-29T13:28:52;9.30;99.90
65048;DHT22;52089;51.362;-2.384;2022-12-29T13:32:38;9.10;99.90
65048;DHT22;52089;51.362;-2.384;2022-12-29T13:40:18;8.40;99.90
65048;DHT22;52089;51.362;-2.384;2022-12-29T13:44:03;8.20;99.90
65048;DHT22;52089;51.362;-2.384;2022-12-29T13:51:44;7.90;99.90
65048;DHT22;52089;51.362;-2.384;2022-12-29T13:55:35;8.10;99.90
65048;DHT22;52089;51.362;-2.384;2022-12-29T13:59:38;8.40;99.90
65048;DHT22;52089;51.362;-2.384;2022-12-29T14:07:17;8.60;99.90
65048;DHT22;52089;51.362;-2.384;2022-12-29T14:11:10;8.60;99.90
65048;DHT22;52089;51.362;-2.384;2022-12-29T14:14:52;8.60;99.90
65048;DHT22;52089;51.362;-2.384;2022-12-29T14:18:41;8.60;99.90
65048;DHT22;52089;51.362;-2.384;2022-12-29T14:22:26;8.40;99.90
65048;DHT22;52089;51.362;-2.384;2022-12-29T14:26:18;8.10;99.90
65048;DHT22;52089;51.362;-2.384;2022-12-29T14:30:46;7.90;99.90
65048;DHT22;52089;51.362;-2.384;2022-12-29T14:34:30;7.80;99.90
65048;DHT22;52089;51.362;-2.384;2022-12-29T14:38:26;8.30;99.90
65048;DHT22;52089;51.362;-2.384;2022-12-29T14:45:59;9.30;99.90
65048;DHT22;52089;51.362;-2.384;2022-12-29T14:49:43;9.20;99.90
65048;DHT22;52089;51.362;-2.384;2022-12-29T14:57:28;9.80;99.90
65048;DHT22;52089;51.362;-2.384;2022-12-29T15:05:33;9.00;99.90
65048;DHT22;52089;51.362;-2.384;2022-12-29T15:13:04;8.20;99.90
65048;DHT22;52089;51.362;-2.384;2022-12-29T15:16:47;7.90;99.90
65048;DHT22;52089;51.362;-2.384;2022-12-29T15:20:30;7.70;99.90
65048;DHT22;52089;51.362;-2.384;2022-12-29T15:24:13;7.60;99.90
65048;DHT22;52089;51.362;-2.384;2022-12-29T15:28:04;7.40;99.90
65048;DHT22;52089;51.362;-2.384;2022-12-29T15:31:47;7.20;99.90
65048;DHT22;52089;51.362;-2.384;2022-12-29T15:35:35;7.10;99.90
65048;DHT22;52089;51.362;-2.384;2022-12-29T15:39:29;7.00;99.90
65048;DHT22;52089;51.362;-2.384;2022-12-29T15:47:21;6.80;99.90
65048;DHT22;52089;51.362;-2.384;2022-12-29T15:51:04;6.80;99.90
65048;DHT22;52089;51.362;-2.384;2022-12-29T15:54:54;6.70;99.90
65048;DHT22;52089;51.362;-2.384;2022-12-29T15:58:48;6.60;99.90
65048;DHT22;52089;51.362;-2.384;2022-12-29T16:02:30;6.50;99.90
65048;DHT22;52089;51.362;-2.384;2022-12-29T16:06:36;6.50;99.90
65048;DHT22;52089;51.362;-2.384;2022-12-29T16:10:38;6.40;99.90
65048;DHT22;52089;51.362;-2.384;2022-12-29T16:14:29;6.20;99.90
65048;DHT22;52089;51.362;-2.384;2022-12-29T16:18:26;6.10;99.90
65048;DHT22;52089;51.362;-2.384;2022-12-29T16:22:22;6.10;99.90
65048;DHT22;52089;51.362;-2.384;2022-12-29T16:26:18;5.90;99.90
65048;DHT22;52089;51.362;-2.384;2022-12-29T16:30:04;5.80;99.90
65048;DHT22;52089;51.362;-2.384;2022-12-29T16:33:49;5.80;99.90
65048;DHT22;52089;51.362;-2.384;2022-12-29T16:37:34;5.70;99.90
65048;DHT22;52089;51.362;-2.384;2022-12-29T16:41:30;5.60;99.90
65048;DHT22;52089;51.362;-2.384;2022-12-29T16:49:00;5.50;99.90
65048;DHT22;52089;51.362;-2.384;2022-12-29T16:52:42;5.50;99.90
65048;DHT22;52089;51.362;-2.384;2022-12-29T16:56:28;5.40;99.90
65048;DHT22;52089;51.362;-2.384;2022-12-29T17:00:25;5.40;99.90
65048;DHT22;52089;51.362;-2.384;2022-12-29T17:04:12;5.40;99.90
65048;DHT22;52089;51.362;-2.384;2022-12-29T17:07:54;5.50;99.90
65048;DHT22;52089;51.362;-2.384;2022-12-29T17:11:42;5.50;99.90
65048;DHT22;52089;51.362;-2.384;2022-12-29T17:15:45;5.50;99.90
65048;DHT22;52089;51.362;-2.384;2022-12-29T17:19:33;5.50;99.90
65048;DHT22;52089;51.362;-2.384;2022-12-29T17:23:16;5.50;99.90
65048;DHT22;52089;51.362;-2.384;2022-12-29T17:27:07;5.50;99.90
65048;DHT22;52089;51.362;-2.384;2022-12-29T17:30:52;5.50;99.90
65048;DHT22;52089;51.362;-2.384;2022-12-29T17:34:35;5.50;99.90
65048;DHT22;52089;51.362;-2.384;2022-12-29T17:38:22;5.50;99.90
65048;DHT22;52089;51.362;-2.384;2022-12-29T17:42:09;5.50;99.90
65048;DHT22;52089;51.362;-2.384;2022-12-29T17:45:56;5.50;99.90
65048;DHT22;52089;51.362;-2.384;2022-12-29T17:49:39;5.60;99.90
65048;DHT22;52089;51.362;-2.384;2022-12-29T17:53:27;5.60;99.90
65048;DHT22;52089;51.362;-2.384;2022-12-29T17:57:15;5.60;99.90
65048;DHT22;52089;51.362;-2.384;2022-12-29T18:00:59;5.60;99.90
65048;DHT22;52089;51.362;-2.384;2022-12-29T18:04:41;5.50;99.90
65048;DHT22;52089;51.362;-2.384;2022-12-29T18:08:23;5.50;99.90
65048;DHT22;52089;51.362;-2.384;2022-12-29T18:12:05;5.50;99.90
65048;DHT22;52089;51.362;-2.384;2022-12-29T18:15:50;5.40;99.90
65048;DHT22;52089;51.362;-2.384;2022-12-29T18:19:32;5.40;99.90
65048;DHT22;52089;51.362;-2.384;2022-12-29T18:23:26;5.40;99.90
65048;DHT22;52089;51.362;-2.384;2022-12-29T18:27:18;5.40;99.90
65048;DHT22;52089;51.362;-2.384;2022-12-29T18:31:02;5.40;99.90
65048;DHT22;52089;51.362;-2.384;2022-12-29T18:34:44;5.40;99.90
65048;DHT22;52089;51.362;-2.384;2022-12-29T18:38:26;5.40;99.90
65048;DHT22;52089;51.362;-2.384;2022-12-29T18:42:15;5.40;99.90
65048;DHT22;52089;51.362;-2.384;2022-12-29T18:45:58;5.40;99.90
65048;DHT22;52089;51.362;-2.384;2022-12-29T18:49:39;5.40;99.90
65048;DHT22;52089;51.362;-2.384;2022-12-29T18:53:23;5.40;99.90
65048;DHT22;52089;51.362;-2.384;2022-12-29T18:57:05;5.40;99.90
65048;DHT22;52089;51.362;-2.384;2022-12-29T19:00:46;5.30;99.90
65048;DHT22;52089;51.362;-2.384;2022-12-29T19:04:28;5.30;99.90
65048;DHT22;52089;51.362;-2.384;2022-12-29T19:08:11;5.30;99.90
65048;DHT22;52089;51.362;-2.384;2022-12-29T19:11:53;5.30;99.90
65048;DHT22;52089;51.362;-2.384;2022-12-29T19:15:36;5.30;99.90
65048;DHT22;52089;51.362;-2.384;2022-12-29T19:19:20;5.30;99.90
65048;DHT22;52089;51.362;-2.384;2022-12-29T19:23:05;5.20;99.90
65048;DHT22;52089;51.362;-2.384;2022-12-29T19:26:48;5.30;99.90
65048;DHT22;52089;51.362;-2.384;2022-12-29T19:30:30;5.30;99.90
65048;DHT22;52089;51.362;-2.384;2022-12-29T19:34:16;5.30;99.90
65048;DHT22;52089;51.362;-2.384;2022-12-29T19:37:58;5.20;99.90
65048;DHT22;52089;51.362;-2.384;2022-12-29T19:41:40;5.20;99.90
65048;DHT22;52089;51.362;-2.384;2022-12-29T19:45:22;5.20;99.90
65048;DHT22;52089;51.362;-2.384;2022-12-29T19:49:04;5.20;99.90
65048;DHT22;52089;51.362;-2.384;2022-12-29T19:52:45;5.20;99.90
65048;DHT22;52089;51.362;-2.384;2022-12-29T19:56:27;5.10;99.90
65048;DHT22;52089;51.362;-2.384;2022-12-29T20:00:10;5.10;99.90
65048;DHT22;52089;51.362;-2.384;2022-12-29T20:03:54;5.10;99.90
65048;DHT22;52089;51.362;-2.384;2022-12-29T20:07:36;5.00;99.90
65048;DHT22;52089;51.362;-2.384;2022-12-29T20:11:18;5.00;99.90
65048;DHT22;52089;51.362;-2.384;2022-12-29T20:15:01;5.10;99.90
65048;DHT22;52089;51.362;-2.384;2022-12-29T20:18:43;5.10;99.90
65048;DHT22;52089;51.362;-2.384;2022-12-29T20:22:25;5.10;99.90
65048;DHT22;52089;51.362;-2.384;2022-12-29T20:26:11;5.10;99.90
65048;DHT22;52089;51.362;-2.384;2022-12-29T20:29:53;5.10;99.90
65048;DHT22;52089;51.362;-2.384;2022-12-29T20:33:35;5.20;99.90
65048;DHT22;52089;51.362;-2.384;2022-12-29T20:37:17;5.10;99.90
65048;DHT22;52089;51.362;-2.384;2022-12-29T20:40:59;5.10;99.90
65048;DHT22;52089;51.362;-2.384;2022-12-29T20:44:41;5.10;99.90
65048;DHT22;52089;51.362;-2.384;2022-12-29T20:48:23;5.10;99.90
65048;DHT22;52089;51.362;-2.384;2022-12-29T20:52:05;5.00;99.90
65048;DHT22;52089;51.362;-2.384;2022-12-29T20:55:48;5.10;99.90
65048;DHT22;52089;51.362;-2.384;2022-12-29T20:59:31;5.10;99.90
65048;DHT22;52089;51.362;-2.384;2022-12-29T21:03:13;5.00;99.90
65048;DHT22;52089;51.362;-2.384;2022-12-29T21:06:54;5.00;99.90
65048;DHT22;52089;51.362;-2.384;2022-12-29T21:10:36;5.00;99.90
65048;DHT22;52089;51.362;-2.384;2022-12-29T21:14:18;5.00;99.90
65048;DHT22;52089;51.362;-2.384;2022-12-29T21:18:00;5.00;99.90
65048;DHT22;52089;51.362;-2.384;2022-12-29T21:21:42;5.10;99.90
65048;DHT22;52089;51.362;-2.384;2022-12-29T21:25:24;5.10;99.90
65048;DHT22;52089;51.362;-2.384;2022-12-29T21:29:05;5.10;99.90
65048;DHT22;52089;51.362;-2.384;2022-12-29T21:32:47;5.00;99.90
65048;DHT22;52089;51.362;-2.384;2022-12-29T21:36:30;5.00;99.90
65048;DHT22;52089;51.362;-2.384;2022-12-29T21:40:13;5.00;99.90
65048;DHT22;52089;51.362;-2.384;2022-12-29T21:43:56;5.00;99.90
65048;DHT22;52089;51.362;-2.384;2022-12-29T21:48:02;5.00;99.90
65048;DHT22;52089;51.362;-2.384;2022-12-29T21:52:01;5.00;99.90
65048;DHT22;52089;51.362;-2.384;2022-12-29T21:55:43;5.10;99.90
65048;DHT22;52089;51.362;-2.384;2022-12-29T21:59:25;5.10;99.90
65048;DHT22;52089;51.362;-2.384;2022-12-29T22:03:26;5.10;99.90
65048;DHT22;52089;51.362;-2.384;2022-12-29T22:07:26;5.10;99.90
65048;DHT22;52089;51.362;-2.384;2022-12-29T22:11:27;5.20;99.90
65048;DHT22;52089;51.362;-2.384;2022-12-29T22:15:29;5.10;99.90
65048;DHT22;52089;51.362;-2.384;2022-12-29T22:19:11;5.20;99.90
65048;DHT22;52089;51.362;-2.384;2022-12-29T22:22:54;5.10;99.90
65048;DHT22;52089;51.362;-2.384;2022-12-29T22:26:36;5.20;99.90
65048;DHT22;52089;51.362;-2.384;2022-12-29T22:30:18;5.20;99.90
65048;DHT22;52089;51.362;-2.384;2022-12-29T22:34:01;5.20;99.90
65048;DHT22;52089;51.362;-2.384;2022-12-29T22:37:44;5.20;99.90
65048;DHT22;52089;51.362;-2.384;2022-12-29T22:41:25;5.20;99.90
65048;DHT22;52089;51.362;-2.384;2022-12-29T22:45:08;5.20;99.90
65048;DHT22;52089;51.362;-2.384;2022-12-29T22:48:50;5.10;99.90
65048;DHT22;52089;51.362;-2.384;2022-12-29T22:52:32;5.20;99.90
65048;DHT22;52089;51.362;-2.384;2022-12-29T22:56:14;5.10;99.90
65048;DHT22;52089;51.362;-2.384;2022-12-29T22:59:56;5.10;99.90
65048;DHT22;52089;51.362;-2.384;2022-12-29T23:03:38;5.10;99.90
65048;DHT22;52089;51.362;-2.384;2022-12-29T23:07:19;5.10;99.90
65048;DHT22;52089;51.362;-2.384;2022-12-29T23:11:02;5.20;99.90
65048;DHT22;52089;51.362;-2.384;2022-12-29T23:14:45;5.20;99.90
65048;DHT22;52089;51.362;-2.384;2022-12-29T23:18:27;5.30;99.90
65048;DHT22;52089;51.362;-2.384;2022-12-29T23:22:09;5.20;99.90
65048;DHT22;52089;51.362;-2.384;2022-12-29T23:25:50;5.30;99.90
65048;DHT22;52089;51.362;-2.384;2022-12-29T23:29:32;5.30;99.90
65048;DHT22;52089;51.362;-2.384;2022-12-29T23:33:14;5.30;99.90
65048;DHT22;52089;51.362;-2.384;2022-12-29T23:36:56;5.30;99.90
65048;DHT22;52089;51.362;-2.384;2022-12-29T23:40:38;5.30;99.90
65048;DHT22;52089;51.362;-2.384;2022-12-29T23:44:19;5.40;99.90
65048;DHT22;52089;51.362;-2.384;2022-12-29T23:48:01;5.40;99.90
65048;DHT22;52089;51.362;-2.384;2022-12-29T23:51:43;5.40;99.90
65048;DHT22;52089;51.362;-2.384;2022-12-29T23:55:25;5.50;99.90
65048;DHT22;52089;51.362;-2.384;2022-12-29T23:59:07;5.50;99.90
